地図

経路データ

SID SEASON NUMBER BASIN SUBBASIN NAME ISO_TIME NATURE LAT LON WMO_WIND WMO_PRES WMO_AGENCY TRACK_TYPE DIST2LAND LANDFALL IFLAG USA_AGENCY USA_ATCF_ID USA_LAT USA_LON USA_RECORD USA_STATUS USA_WIND USA_PRES USA_SSHS USA_R34_NE USA_R34_SE USA_R34_SW USA_R34_NW USA_R50_NE USA_R50_SE USA_R50_SW USA_R50_NW USA_R64_NE USA_R64_SE USA_R64_SW USA_R64_NW USA_POCI USA_ROCI USA_RMW USA_EYE TOKYO_LAT TOKYO_LON TOKYO_GRADE TOKYO_WIND TOKYO_PRES TOKYO_R50_DIR TOKYO_R50_LONG TOKYO_R50_SHORT TOKYO_R30_DIR TOKYO_R30_LONG TOKYO_R30_SHORT TOKYO_LAND CMA_LAT CMA_LON CMA_CAT CMA_WIND CMA_PRES HKO_LAT HKO_LON HKO_CAT HKO_WIND HKO_PRES NEWDELHI_LAT NEWDELHI_LON NEWDELHI_GRADE NEWDELHI_WIND NEWDELHI_PRES NEWDELHI_CI NEWDELHI_DP NEWDELHI_POCI REUNION_LAT REUNION_LON REUNION_TYPE REUNION_WIND REUNION_PRES REUNION_TNUM REUNION_CI REUNION_RMW REUNION_R34_NE REUNION_R34_SE REUNION_R34_SW REUNION_R34_NW REUNION_R50_NE REUNION_R50_SE REUNION_R50_SW REUNION_R50_NW REUNION_R64_NE REUNION_R64_SE REUNION_R64_SW REUNION_R64_NW BOM_LAT BOM_LON BOM_TYPE BOM_WIND BOM_PRES BOM_TNUM BOM_CI BOM_RMW BOM_R34_NE BOM_R34_SE BOM_R34_SW BOM_R34_NW BOM_R50_NE BOM_R50_SE BOM_R50_SW BOM_R50_NW BOM_R64_NE BOM_R64_SE BOM_R64_SW BOM_R64_NW BOM_ROCI BOM_POCI BOM_EYE BOM_POS_METHOD BOM_PRES_METHOD NADI_LAT NADI_LON NADI_CAT NADI_WIND NADI_PRES WELLINGTON_LAT WELLINGTON_LON WELLINGTON_WIND WELLINGTON_PRES DS824_LAT DS824_LON DS824_STAGE DS824_WIND DS824_PRES TD9636_LAT TD9636_LON TD9636_STAGE TD9636_WIND TD9636_PRES TD9635_LAT TD9635_LON TD9635_WIND TD9635_PRES TD9635_ROCI NEUMANN_LAT NEUMANN_LON NEUMANN_CLASS NEUMANN_WIND NEUMANN_PRES MLC_LAT MLC_LON MLC_CLASS MLC_WIND MLC_PRES USA_GUST BOM_GUST BOM_GUST_PER REUNION_GUST REUNION_GUST_PER USA_SEAHGT USA_SEARAD_NE USA_SEARAD_SE USA_SEARAD_SW USA_SEARAD_NW STORM_SPEED STORM_DIR
1975046S17124 1975 22 SI WA TRIXIE 1975-02-15 00:00:00 TS -16.7000 123.840 25 997 bom main 0 0 O_____O__OO___ jtwc_sh SH211975 -16.7000 124.000 -1 -16.7000 123.600 20 25 997 1.50000 1.50000 1004 -16.7000 123.600 TC 35 997 -16.7000 124.000 2 4 278
1975046S17124 1975 22 SI WA TRIXIE 1975-02-15 03:00:00 TS -16.6746 123.641 30 994 bom main 0 0 P_____O__PP___ SH211975 -16.6500 123.812 -1 -16.7000 123.400 20 30 994 2.00000 -16.7150 123.405 TC 37 995 -16.6580 123.775 2 4 278
1975046S17124 1975 22 SI WA TRIXIE 1975-02-15 06:00:00 TS -16.6461 123.428 30 993 bom main 10 10 O_____O__OP_O_ jtwc_sh SH211975 -16.6000 123.600 -1 -16.7000 123.200 20 30 993 2.00000 -16.7000 123.200 TC 40 993 -16.6127 123.550 2 -16.7000 123.400 TC 40 993 4 282
1975046S17124 1975 22 SI WA TRIXIE 1975-02-15 09:00:00 TS -16.5863 123.201 30 993 bom main 15 0 P_____O__PP_P_ SH211975 -16.5500 123.350 -1 -16.6000 123.000 20 30 993 2.50000 -16.6425 122.985 TC 40 993 -16.5610 123.325 2 -16.6426 123.190 TC 40 993 4 283
1975046S17124 1975 22 SI WA TRIXIE 1975-02-15 12:00:00 TS -16.5478 122.983 30 994 bom main 0 0 O_____O__OO_O_ jtwc_sh SH211975 -16.5000 123.100 -1 -16.6000 122.800 20 30 994 2.50000 -16.6000 122.800 TC 40 994 -16.5000 123.100 2 -16.6000 123.000 TC 40 993 4 279
1975046S17124 1975 22 SI WA TRIXIE 1975-02-15 15:00:00 TS -16.5261 122.820 30 997 bom main 10 10 P_____O__PP_P_ SH211975 -16.4499 122.900 -1 -16.6000 122.700 20 30 997 2.50000 -16.6424 122.700 TC 40 993 -16.4296 122.875 2 -16.5850 122.843 TC 40 993 3 274
1975046S17124 1975 22 SI WA TRIXIE 1975-02-15 18:00:00 TS -16.5271 122.658 35 993 bom main 15 15 O_____O__OP_O_ jtwc_sh SH211975 -16.4000 122.700 -1 -16.7000 122.600 30 35 993 3.00000 -16.7000 122.600 TC 40 993 -16.3624 122.650 2 -16.6000 122.700 TC 40 993 4 274
1975046S17124 1975 22 SI WA TRIXIE 1975-02-15 21:00:00 TS -16.5032 122.448 40 993 bom main 39 39 P_____O__PP_P_ SH211975 -16.3350 122.450 -1 -16.7000 122.400 30 40 993 3.00000 -16.6925 122.415 TC 40 993 -16.3140 122.425 2 -16.6425 122.550 TC 40 993 4 274
1975046S17124 1975 22 SI WA TRIXIE 1975-02-16 00:00:00 TS -16.5000 122.233 40 993 bom main 55 55 O_____O__OO_O_ jtwc_sh SH211975 -16.3000 122.200 -1 -16.7000 122.200 30 40 993 3.00000 3.00000 -16.7000 122.200 TC 40 993 -16.3000 122.200 2 -16.7000 122.400 TC 40 993 4 263
1975046S17124 1975 22 SI WA TRIXIE 1975-02-16 03:00:00 TS -16.5516 122.032 45 990 bom main 62 62 P_____O__PP_P_ SH211975 -16.3274 122.000 -1 -16.8000 122.000 30 45 990 3.00000 -16.7850 121.993 TC 45 990 -16.3270 121.943 2 -16.7425 122.257 TC 45 991 4 251
1975046S17124 1975 22 SI WA TRIXIE 1975-02-16 06:00:00 TS -16.6317 121.832 50 987 bom main 77 69 O_____O__OP_O_ jtwc_sh SH211975 -16.4000 121.800 -1 -16.9000 121.800 30 50 987 3.50000 -16.9000 121.800 TC 50 987 -16.3902 121.690 2 -16.8000 122.100 TC 50 989 4 247
1975046S17124 1975 22 SI WA TRIXIE 1975-02-16 09:00:00 TS -16.7243 121.610 50 984 bom main 86 81 P_____O__PP_P_ SH211975 -16.4851 121.528 -1 -17.0000 121.600 30 50 984 3.50000 -17.0000 121.635 TC 55 984 -16.4832 121.468 2 -16.8925 121.900 TC 52 986 4 242
1975046S17124 1975 22 SI WA TRIXIE 1975-02-16 12:00:00 TS -16.8333 121.433 55 981 bom main 101 96 O_____O__OO_O_ jtwc_sh SH211975 -16.6000 121.300 -1 -17.1000 121.500 30 55 981 4.00000 -17.1000 121.500 TC 60 981 -16.6000 121.300 2 -17.0000 121.700 TC 55 983 3 230
1975046S17124 1975 22 SI WA TRIXIE 1975-02-16 15:00:00 TS -16.9470 121.333 60 978 bom main 105 98 P_____O__PP_P_ SH211975 -16.7424 121.212 -1 -17.2000 121.400 30 60 978 4.00000 -17.1925 121.392 TC 62 978 -16.7120 121.246 2 -17.0925 121.535 TC 60 980 3 212
1975046S17124 1975 22 SI WA TRIXIE 1975-02-16 18:00:00 TS -17.0745 121.274 60 976 bom main 98 98 O_____O__OP_O_ jtwc_sh SH211975 -16.9000 121.200 -1 -17.3000 121.300 30 60 976 4.00000 -17.3000 121.300 TC 65 976 -16.8472 121.242 2 -17.2000 121.400 TC 65 977 3 200
1975046S17124 1975 22 SI WA TRIXIE 1975-02-16 21:00:00 TS -17.2069 121.231 65 973 bom main 105 98 P_____O__PP_P_ SH211975 -17.0350 121.215 -1 -17.4000 121.200 40 65 973 4.50000 -17.4350 121.215 TC 67 973 -17.0089 121.242 2 -17.3275 121.300 TC 70 974 3 199
1975046S17124 1975 22 SI WA TRIXIE 1975-02-17 00:00:00 TS -17.3833 121.167 70 970 bom main 98 98 O_____O__OO_O_ jtwc_sh SH211975 -17.2000 121.200 -1 -17.6000 121.100 40 70 970 4.50000 4.50000 -17.6000 121.100 TC 70 970 -17.2000 121.200 2 -17.5000 121.200 TC 75 971 4 207
1975046S17124 1975 22 SI WA TRIXIE 1975-02-17 03:00:00 TS -17.6032 121.022 75 966 bom main 116 116 P_____O__PP_P_ SH211975 -17.4350 121.088 -1 -17.8000 120.900 40 75 966 4.50000 -17.7775 120.908 TC 75 966 -17.4292 121.083 2 -17.7425 121.065 TC 77 967 6 214
1975046S17124 1975 22 SI WA TRIXIE 1975-02-17 06:00:00 TS -17.8474 120.835 80 963 bom main 130 116 O_____O__OP_O_ jtwc_sh SH211975 -17.7000 120.900 -1 -18.0000 120.700 40 80 963 5.00000 -18.0000 120.700 TC 80 963 -17.6846 120.912 2 -18.0000 120.900 TC 80 964 6 215
1975046S17124 1975 22 SI WA TRIXIE 1975-02-17 09:00:00 TS -18.1104 120.643 80 960 bom main 128 124 P_____O__PP_P_ SH211975 -17.9574 120.687 -1 -18.3000 120.500 40 80 960 5.00000 -18.2999 120.572 TC 82 960 -17.9478 120.686 2 -18.1999 120.722 TC 85 961 7 217
1975046S17124 1975 22 SI WA TRIXIE 1975-02-17 12:00:00 TS -18.3667 120.417 85 958 bom main 138 138 O_____O__OO_O_ jtwc_sh SH211975 -18.2000 120.400 -1 -18.6000 120.400 40 85 958 5.00000 -18.6000 120.400 TC 85 958 -18.2000 120.400 2 -18.4000 120.500 TC 90 959 7 228
1975046S17124 1975 22 SI WA TRIXIE 1975-02-17 15:00:00 TS -18.5838 120.087 85 956 bom main 138 130 P_____O__PP_P_ SH211975 -18.4075 120.022 -1 -18.8000 120.100 40 85 956 5.00000 -18.8150 120.095 TC 87 956 -18.4227 120.058 2 -18.6500 120.223 TC 92 956 8 238
1975046S17124 1975 22 SI WA TRIXIE 1975-02-17 18:00:00 TS -18.7884 119.693 90 954 bom main 133 119 O_____O__OP_O_ jtwc_sh SH211975 -18.6000 119.600 -1 -19.0000 119.700 40 90 954 5.50000 -19.0000 119.700 TC 90 954 -18.6303 119.660 2 -18.9000 119.900 TC 95 954 9 242
1975046S17124 1975 22 SI WA TRIXIE 1975-02-17 21:00:00 TS -18.9908 119.294 90 952 bom main 123 102 P_____O__PP_P_ SH211975 -18.8074 119.200 -1 -19.2000 119.300 40 90 952 5.50000 -19.2000 119.257 TC 92 952 -18.8227 119.233 2 -19.1074 119.572 TC 97 952 9 243
1975046S17124 1975 22 SI WA TRIXIE 1975-02-18 00:00:00 TS -19.1833 118.867 90 950 bom main 102 98 O_____O__OO_O_ jtwc_sh SH211975 -19.0000 118.800 -1 -19.4000 118.800 40 90 950 5.50000 5.50000 -19.4000 118.800 TC 95 950 -19.0000 118.800 2 -19.3000 119.200 TC 100 951 9 245
1975046S17124 1975 22 SI WA TRIXIE 1975-02-18 03:00:00 TS -19.3618 118.459 95 946 bom main 100 100 P_____O__PP_P_ SH211975 -19.1574 118.400 -1 -19.6000 118.400 40 95 946 5.50000 -19.5999 118.392 TC 97 946 -19.1560 118.399 2 -19.5000 118.765 TC 102 947 8 246
1975046S17124 1975 22 SI WA TRIXIE 1975-02-18 06:00:00 TS -19.5333 118.050 100 943 bom main 101 84 O_____O__OP_O_ jtwc_sh SH211975 -19.3000 118.000 -1 -19.8000 118.000 40 100 943 6.00000 -19.8000 118.000 TC 100 943 -19.2997 117.999 2 -19.7000 118.300 TC 105 944 8 246
1975046S17124 1975 22 SI WA TRIXIE 1975-02-18 09:00:00 TS -19.7047 117.639 100 940 bom main 94 88 P_____O__PP_P_ SH211975 -19.4424 117.600 -1 -20.0000 117.600 40 100 940 6.00000 -20.0000 117.592 TC 102 940 -19.4435 117.599 2 -19.8999 117.842 TC 107 941 8 246
1975046S17124 1975 22 SI WA TRIXIE 1975-02-18 12:00:00 TS -19.8833 117.233 105 937 bom main 88 56 O_____O__OO_O_ jtwc_sh SH211975 -19.6000 117.200 -1 -20.2000 117.200 40 105 937 6.00000 -20.2000 117.200 TC 105 937 -19.6000 117.200 2 -20.1000 117.400 TC 110 938 8 244
1975046S17124 1975 22 SI WA TRIXIE 1975-02-18 15:00:00 TS -20.0751 116.849 105 934 bom main 55 39 P_____O__PP_P_ SH211975 -19.7924 116.800 -1 -20.4000 116.900 40 105 934 6.00000 -20.3999 116.835 TC 107 934 -19.7736 116.772 2 -20.2924 116.985 TC 115 935 8 242
1975046S17124 1975 22 SI WA TRIXIE 1975-02-18 18:00:00 TS -20.2771 116.458 110 931 bom main 39 39 O_____O__OP_O_ jtwc_sh SH211975 -20.0000 116.400 -1 -20.6000 116.500 40 110 931 6.50000 -20.6000 116.500 TC 110 931 -19.9627 116.348 2 -20.5000 116.600 TC 120 932 8 241
1975046S17124 1975 22 SI WA TRIXIE 1975-02-18 21:00:00 TS -20.4767 116.091 110 928 bom main 45 39 P_____O__PP_P_ SH211975 -20.1925 115.985 -1 -20.8000 116.200 40 110 928 6.50000 -20.7699 116.200 TC 112 928 -20.1705 115.950 2 -20.7350 116.227 TC 125 929 8 237
1975046S17124 1975 22 SI WA TRIXIE 1975-02-19 00:00:00 TS -20.7000 115.750 115 925 bom main 45 39 O_____O__OO_O_ jtwc_sh SH211975 -20.4000 115.600 -1 -21.0000 115.900 40 115 925 6.50000 6.50000 -21.0000 115.900 TC 115 925 -20.4000 115.600 2 -21.0000 115.900 TC 130 926 159 159 8 235
1975046S17124 1975 22 SI WA TRIXIE 1975-02-19 01:20:00 TS -20.8320 115.558 115 925 bom main 45 45 P_____O__PP_P_ SH211975 -20.5007 115.442 -1 -21.2000 115.500 40 115 925 6.50000 -21.1615 115.737 TC 113 927 -20.4992 115.457 2 -21.1301 115.772 TC 127 927 159 159 9 227
1975046S17124 1975 22 SI WA TRIXIE 1975-02-19 03:00:00 TS -20.9985 115.412 115 925 bom main 45 38 P_____O__PP_P_ SH211975 -20.6350 115.262 -1 -21.4000 115.500 40 115 925 6.50000 -21.3926 115.528 TC 112 930 -20.6288 115.292 2 -21.2999 115.627 TC 125 928 159 159 8 220
1975046S17124 1975 22 SI WA TRIXIE 1975-02-19 03:30:00 TS -21.0564 115.354 115 925 bom main 38 33 P_____O__PP_P_ SH211975 -20.6770 115.213 -1 -21.5000 115.400 40 115 925 6.50000 -21.4642 115.467 TC 112 930 -20.6690 115.246 2 -21.3513 115.587 TC 124 928 159 159 8 219
1975046S17124 1975 22 SI WA TRIXIE 1975-02-19 06:00:00 TS -21.3137 115.140 105 935 bom main 35 11 O_____O__OP_O_ jtwc_sh SH211975 -20.9000 115.000 -1 -21.8000 115.200 40 105 935 -21.8000 115.200 TC 110 935 -20.8822 115.037 2 -21.6000 115.400 TC 120 931 7 217
1975046S17124 1975 22 SI WA TRIXIE 1975-02-19 09:00:00 TS -21.5720 114.941 95 945 bom main 11 0 P_____O__PP_P_ SH211975 -21.1774 114.812 -1 -22.0000 115.000 40 95 945 -22.0649 115.012 TC 100 945 -21.1695 114.839 2 -21.8425 115.170 TC 100 941 6 213
1975046S17124 1975 22 SI WA TRIXIE 1975-02-19 10:30:00 TS -21.6894 114.881 90 950 bom main 0 0 P_____O__PP_P_ SH211975 -21.3315 114.748 -1 -22.0000 115.000 40 90 950 -22.1799 114.951 TC 95 950 -21.3288 114.762 2 -21.9647 115.074 TC 90 946 6 205
1975046S17124 1975 22 SI WA TRIXIE 1975-02-19 11:10:00 TS -21.7611 114.842 85 952 bom main 0 0 P_____O__PP_P_ SH211975 -21.4044 114.725 -1 -22.1000 114.900 40 85 952 -22.2319 114.928 TC 92 952 -21.4033 114.733 2 -22.0227 115.038 TC 85 948 8 197
1975046S17124 1975 22 SI WA TRIXIE 1975-02-19 12:00:00 TS -21.8667 114.817 80 955 bom main 0 0 O_____O__OO_O_ jtwc_sh SH211975 -21.5000 114.700 -1 -22.3000 114.900 40 80 955 -22.3000 114.900 TC 90 955 -21.5000 114.700 2 -22.1000 115.000 TC 80 951 7 193
1975046S17124 1975 22 SI WA TRIXIE 1975-02-19 15:00:00 TS -22.1935 114.731 70 965 bom main 0 0 P_____O__PP_P_ SH211975 -21.8775 114.627 -1 -22.5000 114.800 40 70 965 -22.5775 114.778 TC 80 962 -21.8939 114.629 2 -22.4350 114.927 TC 70 959 7 189
1975046S17124 1975 22 SI WA TRIXIE 1975-02-19 18:00:00 TS -22.5879 114.685 68 970 bom main 0 0 O_____O__OP_O_ jtwc_sh SH211975 -22.3000 114.600 -1 -22.9000 114.700 40 68 970 -22.9000 114.700 TC 70 970 -22.3273 114.611 2 -22.8000 114.900 TC 60 967 8 184
1975046S17124 1975 22 SI WA TRIXIE 1975-02-19 21:00:00 TS -23.0049 114.678 55 973 bom main 0 0 P_____O__PP_P_ SH211975 -22.7575 114.607 -1 -23.3000 114.700 30 55 973 -23.2925 114.692 TC 67 972 -22.7721 114.613 2 -23.1500 114.850 TC 55 970 8 181
1975046S17124 1975 22 SI WA TRIXIE 1975-02-20 00:00:00 TS -23.4167 114.667 50 975 bom main 0 0 O_____O__OO_O_ jtwc_sh SH211975 -23.2000 114.600 -1 -23.7000 114.700 30 50 975 -23.7000 114.700 TC 65 975 -23.2000 114.600 2 -23.5000 114.800 TC 50 973 8 185
1975046S17124 1975 22 SI WA TRIXIE 1975-02-20 03:00:00 TS -23.7868 114.602 45 976 bom main 0 0 P_____O__PP_P_ SH211975 -23.5650 114.515 -1 -24.1000 114.700 30 45 976 -24.0650 114.658 TC 65 975 -23.5757 114.474 2 -23.8500 114.750 TC 45 974 7 192
1975046S17124 1975 22 SI WA TRIXIE 1975-02-20 06:00:00 TS -24.1217 114.506 40 976 bom main 0 0 O_____O__OP_O_ jtwc_sh SH211975 -23.9000 114.400 -1 -24.4000 114.600 30 40 976 -24.4000 114.600 TC 65 976 -23.9300 114.334 2 -24.2000 114.700 TC 40 976 7 195
1975046S17124 1975 22 SI WA TRIXIE 1975-02-20 09:00:00 TS -24.4545 114.404 40 977 bom main 0 0 P_____O__PP_P_ SH211975 -24.2500 114.270 -1 -24.7000 114.500 30 40 977 -24.7000 114.528 TC 62 977 -24.2693 114.227 2 -24.5575 114.628 TC 37 977 7 191
1975046S17124 1975 22 SI WA TRIXIE 1975-02-20 12:00:00 TS -24.7833 114.367 35 979 bom main 0 0 O_____O__OO_O_ jtwc_sh SH211975 -24.6000 114.200 -1 -25.0000 114.500 30 35 979 -25.0000 114.500 TC 60 979 -24.6000 114.200 2 -24.9000 114.600 TC 35 978 7 0
1975046S17124 1975 22 SI WA TRIXIE 1975-02-20 15:00:00 TS -25.1252 114.428 35 979 bom main 0 0 P_____O__PP_P_ SH211975 -24.9574 114.240 -1 -25.3000 114.600 30 35 979 -25.3574 114.555 TC 60 979 -24.9643 114.272 2 -25.2150 114.662 TC 35 978 7 165
1975046S17124 1975 22 SI WA TRIXIE 1975-02-20 18:00:00 TS -25.4695 114.572 30 979 bom main 0 0 O_____O__OP_O_ jtwc_sh SH211975 -25.3000 114.400 -1 -25.7000 114.700 20 30 979 -25.7000 114.700 TC 60 979 -25.3168 114.434 2 -25.5000 114.800 TC 35 979 7 153
1975046S17124 1975 22 SI WA TRIXIE 1975-02-20 21:00:00 TS -25.7760 114.795 30 980 bom main 0 0 P_____O__PP_P_ SH211975 -25.6300 114.655 -1 -26.0000 114.900 20 30 980 -25.9875 114.912 TC 60 979 -25.6360 114.679 2 -25.7724 114.970 TC 35 979 7 139
1975046S17124 1975 22 SI WA TRIXIE 1975-02-21 00:00:00 TS -26.0167 115.100 30 980 bom main 0 0 O_____O__OO_O_ jtwc_sh SH211975 -25.9000 115.000 -1 -26.2000 115.200 20 30 980 -26.2000 115.200 TC 60 980 -25.9000 115.000 2 -26.0000 115.200 TC 35 979 7 125
1975046S17124 1975 22 SI WA TRIXIE 1975-02-21 03:00:00 TS -26.1742 115.434 30 980 bom main 0 0 P_____O__PP_P_ SH211975 -26.0799 115.370 -1 -26.3000 115.500 20 30 980 -26.3225 115.528 TC 60 980 -26.0908 115.366 2 -26.1724 115.470 TC 32 980 7 112
1975046S17124 1975 22 SI WA TRIXIE 1975-02-21 06:00:00 TS -26.2875 115.834 30 981 bom main 0 0 O_____O__OP_O_ jtwc_sh SH211975 -26.2000 115.800 -1 -26.4000 115.900 20 30 981 -26.4000 115.900 TC 60 981 -26.2251 115.803 2 -26.3000 115.800 TC 30 981 8 106
1975046S17124 1975 22 SI WA TRIXIE 1975-02-21 09:00:00 TS -26.3907 116.273 30 983 bom main 0 0 P_____O__PP_P_ SH211975 -26.3075 116.285 -1 -26.5000 116.300 20 30 983 -26.4999 116.293 TC 57 983 -26.3218 116.288 2 -26.4075 116.185 TC 30 982 8 104
1975046S17124 1975 22 SI WA TRIXIE 1975-02-21 12:00:00 TS -26.4833 116.733 30 985 bom main 0 0 O_____O__OO_O_ jtwc_sh SH211975 -26.4000 116.800 -1 -26.6000 116.700 20 30 985 -26.6000 116.700 TC 55 985 -26.4000 116.800 2 -26.5000 116.600 TC 30 984 8 103
1975046S17124 1975 22 SI WA TRIXIE 1975-02-21 15:00:00 TS -26.5817 117.185 25 986 bom main 0 0 P_____O__PP_P_ SH211975 -26.5072 117.293 -1 -26.7000 117.100 20 25 986 -26.6999 117.100 TC 55 985 -26.4756 117.320 2 -26.5999 117.008 TC 30 984 8 103
1975046S17124 1975 22 SI WA TRIXIE 1975-02-21 18:00:00 TS -26.6752 117.641 25 985 bom main 0 0 O_____O__OP_O_ jtwc_sh SH211975 -26.6000 117.800 -1 -26.8000 117.500 20 25 985 -26.8000 117.500 TC 55 985 -26.5512 117.844 2 -26.7000 117.400 TC 30 985 8 102
1975046S17124 1975 22 SI WA TRIXIE 1975-02-21 21:00:00 TS -26.7579 118.102 25 986 bom main 0 0 P_____O__PP_P_ SH211975 -26.6605 118.340 -1 -26.9000 117.900 80 25 986 -26.9002 117.900 TC 52 986 -26.6263 118.371 2 -26.8001 117.760 TC 27 985 8 101
1975046S17124 1975 22 SI WA TRIXIE 1975-02-22 00:00:00 TS -26.8333 118.567 987 bom main 0 O_____O__OO_O_ jtwc_sh SH211975 -26.7000 118.900 -1 -27.0000 118.300 80 987 -27.0000 118.300 TC 50 987 -26.7000 118.900 2 -26.9000 118.100 TC 25 986 8 100

IBTrACS Databaseについて

本データベースは、米国NOAAが公開する1842年以降の世界の熱帯低気圧のベストトラックデータアーカイブInternational Best Track Archive for Climate Stewardship (IBTrACS)を、ウェブで閲覧しやすい形式に変換したものです。

最終更新日:2021-12-06